createdAt,value
2023-04-23T00:01:48.181Z,29.30
2023-04-23T00:04:19.004Z,28.85
2023-04-23T00:06:48.072Z,29.48
2023-04-23T00:09:16.809Z,28.52
2023-04-23T00:11:43.847Z,29.02
2023-04-23T00:14:13.980Z,29.13
2023-04-23T00:16:41.065Z,29.98
2023-04-23T00:19:07.737Z,29.70
2023-04-23T00:21:34.294Z,31.63
2023-04-23T00:24:00.911Z,32.03
2023-04-23T00:26:27.554Z,32.78
2023-04-23T00:28:54.254Z,36.00
2023-04-23T00:31:22.602Z,36.58
2023-04-23T00:33:49.223Z,38.13
2023-04-23T00:36:15.792Z,39.00
2023-04-23T00:38:42.356Z,39.72
2023-04-23T00:41:09.053Z,38.85
2023-04-23T00:43:35.704Z,37.88
2023-04-23T00:46:02.858Z,37.20
2023-04-23T00:48:29.808Z,37.17
2023-04-23T00:51:00.834Z,38.95
2023-04-23T00:53:27.477Z,36.75
2023-04-23T00:55:54.607Z,39.20
2023-04-23T00:58:21.522Z,36.25
2023-04-23T01:00:49.212Z,35.92
2023-04-23T01:03:18.449Z,34.63
2023-04-23T01:05:45.563Z,36.05
2023-04-23T01:08:15.991Z,39.00
2023-04-23T01:10:47.252Z,36.75
2023-04-23T01:13:14.003Z,43.65
2023-04-23T01:15:40.660Z,44.47
2023-04-23T01:18:11.058Z,41.85
2023-04-23T01:20:37.965Z,38.13
2023-04-23T01:23:05.109Z,35.13
2023-04-23T01:25:32.004Z,35.63
2023-04-23T01:27:58.826Z,33.08
2023-04-23T01:30:27.852Z,31.42
2023-04-23T01:32:56.175Z,29.60
2023-04-23T01:35:23.865Z,31.08
2023-04-23T01:37:54.445Z,30.65
2023-04-23T01:40:21.413Z,34.53
2023-04-23T01:42:48.689Z,32.53
2023-04-23T01:45:15.620Z,31.13
2023-04-23T01:47:42.455Z,29.67
2023-04-23T01:50:09.895Z,30.38
2023-04-23T01:52:36.561Z,29.80
2023-04-23T01:55:03.481Z,28.27
2023-04-23T01:57:30.521Z,27.63
2023-04-23T02:00:08.177Z,28.02
2023-04-23T02:02:39.729Z,30.92
2023-04-23T02:05:19.562Z,33.78
2023-04-23T02:07:48.608Z,35.17
2023-04-23T02:10:15.601Z,33.65
2023-04-23T02:12:42.575Z,32.47
2023-04-23T02:15:11.088Z,29.40
2023-04-23T02:17:39.954Z,28.70
2023-04-23T02:20:09.773Z,26.45
2023-04-23T02:22:37.937Z,26.92
2023-04-23T02:25:05.638Z,27.50
2023-04-23T02:27:33.374Z,28.73
2023-04-23T02:30:00.176Z,26.95
2023-04-23T02:32:28.103Z,29.77
2023-04-23T02:34:55.028Z,28.90
2023-04-23T02:37:21.592Z,29.58
2023-04-23T02:39:48.137Z,30.08
2023-04-23T02:42:14.784Z,32.92
2023-04-23T02:44:41.699Z,38.50
2023-04-23T02:47:08.489Z,41.42
2023-04-23T02:49:35.099Z,42.58
2023-04-23T02:52:01.859Z,45.47
2023-04-23T02:54:28.525Z,46.67
2023-04-23T02:56:55.161Z,47.25
2023-04-23T02:59:21.769Z,62.67
2023-04-23T03:01:48.348Z,46.70
2023-04-23T03:04:14.963Z,45.63
2023-04-23T03:06:41.984Z,46.15
2023-04-23T03:09:08.960Z,45.35
2023-04-23T03:11:35.537Z,43.20
2023-04-23T03:14:02.131Z,41.65
2023-04-23T03:16:31.295Z,39.67
2023-04-23T03:18:59.306Z,37.95
2023-04-23T03:21:26.125Z,36.72
2023-04-23T03:23:52.805Z,37.05
2023-04-23T03:26:19.371Z,38.65
2023-04-23T03:28:46.057Z,39.72
2023-04-23T03:31:12.630Z,45.22
2023-04-23T03:33:39.262Z,48.67
2023-04-23T03:36:05.920Z,48.60
2023-04-23T03:38:32.532Z,45.72
2023-04-23T03:40:59.155Z,46.85
2023-04-23T03:43:25.800Z,47.50
2023-04-23T03:45:52.360Z,49.92
2023-04-23T03:48:18.955Z,47.47
2023-04-23T03:50:45.651Z,48.10
2023-04-23T03:53:12.395Z,49.55
2023-04-23T03:55:39.026Z,50.72
2023-04-23T03:58:05.856Z,52.33
2023-04-23T04:00:32.489Z,52.10
2023-04-23T04:03:00.683Z,51.83
2023-04-23T04:05:28.077Z,49.55
2023-04-23T04:07:55.734Z,50.50
2023-04-23T04:10:22.493Z,51.92
2023-04-23T04:12:49.423Z,51.95
2023-04-23T04:15:17.442Z,53.92
2023-04-23T04:17:46.005Z,51.60
2023-04-23T04:20:12.986Z,48.15
2023-04-23T04:22:39.932Z,45.42
2023-04-23T04:25:07.069Z,44.08
2023-04-23T04:27:34.665Z,44.42
2023-04-23T04:30:02.167Z,44.10
2023-04-23T04:32:28.799Z,45.38
2023-04-23T04:34:55.416Z,48.85
2023-04-23T04:37:21.968Z,51.40
2023-04-23T04:39:48.668Z,53.10
2023-04-23T04:42:15.729Z,55.22
2023-04-23T04:44:43.673Z,52.33
2023-04-23T04:47:10.759Z,52.78
2023-04-23T04:49:38.396Z,52.65
2023-04-23T04:52:05.331Z,52.88
2023-04-23T04:54:31.976Z,52.08
2023-04-23T04:56:58.592Z,53.67
2023-04-23T04:59:25.227Z,50.78
2023-04-23T05:01:51.853Z,52.65
2023-04-23T05:04:18.676Z,53.53
2023-04-23T05:06:45.377Z,53.55
2023-04-23T05:09:12.003Z,53.25
2023-04-23T05:11:38.674Z,55.35
2023-04-23T05:14:05.279Z,54.20
2023-04-23T05:16:32.008Z,55.10
2023-04-23T05:18:58.702Z,55.97
2023-04-23T05:21:27.485Z,53.03
2023-04-23T05:23:55.211Z,54.53
2023-04-23T05:26:21.920Z,53.60
2023-04-23T05:28:48.480Z,53.05
2023-04-23T05:31:15.210Z,52.13
2023-04-23T05:33:49.720Z,54.70
2023-04-23T05:36:17.880Z,53.28
2023-04-23T05:38:44.478Z,53.15
2023-04-23T05:41:11.188Z,53.85
2023-04-23T05:43:37.768Z,53.47
2023-04-23T05:46:07.787Z,52.53
2023-04-23T05:48:34.748Z,52.80
2023-04-23T05:51:01.558Z,50.45
2023-04-23T05:53:28.609Z,50.17
2023-04-23T05:55:55.316Z,50.63
2023-04-23T05:58:22.196Z,45.95
2023-04-23T06:00:49.886Z,42.17
2023-04-23T06:03:16.662Z,40.35
2023-04-23T06:05:43.522Z,39.05
2023-04-23T06:08:10.192Z,38.83
2023-04-23T06:10:36.829Z,36.15
2023-04-23T06:13:03.475Z,37.17
2023-04-23T06:15:30.068Z,42.22
2023-04-23T06:17:56.798Z,41.30
2023-04-23T06:20:23.419Z,54.83
2023-04-23T06:22:49.963Z,42.80
2023-04-23T06:25:16.562Z,30.80
2023-04-23T06:27:43.150Z,30.30
2023-04-23T06:30:09.974Z,26.55
2023-04-23T06:32:36.552Z,54.80
2023-04-23T06:35:04.532Z,60.83
2023-04-23T06:37:31.784Z,37.53
2023-04-23T06:39:59.568Z,63.45
2023-04-23T06:42:26.392Z,55.47
2023-04-23T06:44:53.017Z,58.70
2023-04-23T06:47:20.185Z,54.70
2023-04-23T06:49:46.831Z,45.58
2023-04-23T06:52:13.439Z,48.45
2023-04-23T06:54:40.180Z,41.40
2023-04-23T06:57:07.086Z,40.10
2023-04-23T06:59:33.777Z,37.25
2023-04-23T07:02:00.490Z,38.50
2023-04-23T07:04:27.120Z,37.65
2023-04-23T07:06:53.699Z,43.58
2023-04-23T07:09:20.257Z,40.67
2023-04-23T07:11:47.344Z,42.30
2023-04-23T07:14:13.879Z,43.70
2023-04-23T07:16:40.483Z,44.63
2023-04-23T07:19:07.063Z,49.78
2023-04-23T07:21:33.644Z,47.90
2023-04-23T07:24:00.855Z,47.63
2023-04-23T07:26:28.054Z,47.70
2023-04-23T07:28:54.715Z,45.40
2023-04-23T07:31:21.982Z,45.42
2023-04-23T07:33:48.592Z,42.92
2023-04-23T07:36:15.399Z,44.67
2023-04-23T07:38:43.351Z,43.75
2023-04-23T07:41:10.071Z,41.85
2023-04-23T07:43:36.716Z,33.38
2023-04-23T07:46:03.442Z,37.78
2023-04-23T07:48:30.120Z,36.35
2023-04-23T07:50:57.159Z,33.10
2023-04-23T07:53:23.801Z,28.02
2023-04-23T07:55:50.413Z,25.60
2023-04-23T07:58:17.360Z,27.50
2023-04-23T08:00:43.963Z,23.60
2023-04-23T08:03:10.660Z,22.35
2023-04-23T08:05:39.154Z,21.23
2023-04-23T08:08:05.930Z,20.48
2023-04-23T08:10:32.655Z,18.35
2023-04-23T08:12:59.239Z,18.55
2023-04-23T08:15:25.832Z,18.40
2023-04-23T08:17:52.400Z,18.83
2023-04-23T08:20:19.322Z,17.35
2023-04-23T08:22:46.204Z,17.75
2023-04-23T08:25:15.713Z,18.73
2023-04-23T08:27:42.285Z,16.63
2023-04-23T08:30:09.593Z,16.38
2023-04-23T08:32:36.228Z,16.90
2023-04-23T08:35:02.977Z,16.52
2023-04-23T08:37:31.399Z,16.48
2023-04-23T08:39:58.630Z,15.35
2023-04-23T08:42:38.650Z,16.05
2023-04-23T08:45:06.094Z,15.55
2023-04-23T08:47:33.483Z,17.75
2023-04-23T08:50:00.166Z,17.45
2023-04-23T08:52:33.115Z,18.15
2023-04-23T08:55:10.734Z,18.60
2023-04-23T08:57:40.113Z,19.05
2023-04-23T09:00:08.624Z,17.23
2023-04-23T09:02:36.229Z,18.20
2023-04-23T09:05:04.608Z,18.02
2023-04-23T09:07:31.304Z,20.48
2023-04-23T09:09:58.394Z,17.15
2023-04-23T09:12:24.988Z,18.52
2023-04-23T09:14:51.500Z,16.63
2023-04-23T09:17:19.516Z,16.58
2023-04-23T09:19:46.696Z,15.88
2023-04-23T09:22:13.313Z,16.23
2023-04-23T09:24:46.043Z,15.70
2023-04-23T09:27:12.642Z,14.90
2023-04-23T09:29:39.386Z,16.38
2023-04-23T09:32:10.506Z,13.70
2023-04-23T09:34:41.257Z,15.20
2023-04-23T09:37:08.105Z,12.73
2023-04-23T09:39:36.104Z,12.98
2023-04-23T09:42:04.796Z,12.32
2023-04-23T09:44:35.142Z,11.32
2023-04-23T09:47:15.808Z,12.15
2023-04-23T09:49:47.685Z,11.85
2023-04-23T09:52:14.346Z,11.75
2023-04-23T09:54:41.046Z,11.60
2023-04-23T09:57:08.908Z,11.68
2023-04-23T09:59:47.756Z,11.30
2023-04-23T10:02:19.010Z,11.05
2023-04-23T10:04:52.064Z,11.63
2023-04-23T10:07:20.662Z,11.30
2023-04-23T10:09:48.322Z,11.15
2023-04-23T10:14:46.748Z,10.75
2023-04-23T10:17:13.978Z,11.57
2023-04-23T10:19:43.618Z,11.35
2023-04-23T10:22:19.337Z,11.40
2023-04-23T10:24:49.691Z,11.52
2023-04-23T10:27:28.817Z,10.55
2023-04-23T10:30:06.400Z,11.20
2023-04-23T10:32:37.557Z,10.02
2023-04-23T10:35:05.122Z,11.38
2023-04-23T10:37:32.186Z,11.52
2023-04-23T10:40:14.190Z,11.52
2023-04-23T10:42:42.791Z,11.77
2023-04-23T10:45:24.120Z,9.95
2023-04-23T10:47:52.813Z,11.50
2023-04-23T10:50:30.768Z,10.40
2023-04-23T10:52:58.310Z,10.07
2023-04-23T10:55:28.549Z,9.80
2023-04-23T10:58:03.151Z,10.93
2023-04-23T11:00:43.158Z,10.27
2023-04-23T11:03:37.939Z,10.45
2023-04-23T11:06:07.143Z,10.30
2023-04-23T11:08:37.676Z,10.52
2023-04-23T11:11:08.723Z,10.73
2023-04-23T11:13:35.399Z,9.98
2023-04-23T11:16:22.588Z,10.23
2023-04-23T11:18:56.500Z,10.00
2023-04-23T11:21:23.042Z,11.57
2023-04-23T11:23:49.604Z,11.48
2023-04-23T11:26:18.670Z,10.23
2023-04-23T11:28:46.462Z,10.75
2023-04-23T11:31:13.133Z,10.10
2023-04-23T11:33:39.774Z,9.95
2023-04-23T11:36:06.860Z,10.02
2023-04-23T11:38:36.876Z,10.43
2023-04-23T11:41:03.472Z,10.57
2023-04-23T11:43:30.355Z,10.57
2023-04-23T11:45:57.380Z,10.43
2023-04-23T11:48:24.136Z,10.95
2023-04-23T11:50:50.661Z,12.02
2023-04-23T11:53:19.056Z,12.13
2023-04-23T11:55:49.228Z,10.93
2023-04-23T11:58:18.760Z,9.90
2023-04-23T12:00:45.461Z,10.35
2023-04-23T12:03:13.930Z,10.57
2023-04-23T12:05:42.506Z,11.10
2023-04-23T12:08:17.456Z,11.65
2023-04-23T12:10:52.167Z,10.85
2023-04-23T12:13:24.479Z,10.38
2023-04-23T12:15:56.651Z,10.52
2023-04-23T12:18:30.832Z,11.00
2023-04-23T12:21:13.567Z,10.60
2023-04-23T12:23:42.738Z,10.13
2023-04-23T12:26:13.852Z,9.80
2023-04-23T12:28:59.180Z,10.20
2023-04-23T12:31:28.332Z,10.35
2023-04-23T12:33:59.460Z,10.05
2023-04-23T12:36:29.499Z,10.45
2023-04-23T12:38:56.335Z,9.88
2023-04-23T12:41:23.102Z,10.40
2023-04-23T12:43:51.156Z,10.55
2023-04-23T12:46:17.807Z,10.45
2023-04-23T12:48:44.653Z,10.18
2023-04-23T12:51:11.321Z,11.07
2023-04-23T12:53:37.925Z,11.00
2023-04-23T12:56:04.998Z,11.40
2023-04-23T12:58:31.611Z,10.23
2023-04-23T13:00:58.349Z,9.93
2023-04-23T13:03:25.745Z,10.23
2023-04-23T13:05:53.775Z,9.80
2023-04-23T13:08:20.333Z,10.10
2023-04-23T13:10:46.918Z,10.15
2023-04-23T13:13:13.476Z,9.70
2023-04-23T13:15:40.038Z,11.05
2023-04-23T13:18:06.898Z,10.98
2023-04-23T13:20:33.729Z,9.85
2023-04-23T13:23:01.498Z,10.57
2023-04-23T13:25:28.113Z,9.88
2023-04-23T13:27:56.155Z,9.30
2023-04-23T13:30:22.998Z,9.68
2023-04-23T13:32:49.593Z,9.93
2023-04-23T13:35:17.673Z,8.90
2023-04-23T13:37:44.357Z,9.52
2023-04-23T13:40:11.337Z,9.15
2023-04-23T13:42:37.929Z,8.82
2023-04-23T13:45:06.434Z,8.55
2023-04-23T13:47:34.813Z,8.75
2023-04-23T13:50:06.642Z,8.65
2023-04-23T13:52:33.847Z,8.30
2023-04-23T13:55:02.768Z,8.13
2023-04-23T13:57:29.580Z,7.70
2023-04-23T13:59:56.165Z,8.02
2023-04-23T14:02:24.057Z,8.32
2023-04-23T14:04:50.775Z,8.05
2023-04-23T14:07:17.515Z,8.30
2023-04-23T14:09:46.477Z,8.93
2023-04-23T14:12:13.071Z,8.20
2023-04-23T14:14:39.716Z,8.98
2023-04-23T14:17:06.464Z,8.70
2023-04-23T14:19:36.017Z,8.80
2023-04-23T14:22:02.965Z,8.32
2023-04-23T14:24:35.042Z,7.80
2023-04-23T14:27:03.736Z,8.13
2023-04-23T14:29:46.864Z,8.38
2023-04-23T14:32:14.287Z,8.38
2023-04-23T14:34:41.011Z,8.32
2023-04-23T14:37:07.835Z,7.70
2023-04-23T14:39:34.705Z,8.35
2023-04-23T14:42:03.633Z,8.25
2023-04-23T14:44:30.305Z,8.18
2023-04-23T14:46:57.216Z,8.10
2023-04-23T14:49:24.187Z,8.70
2023-04-23T14:51:55.177Z,7.68
2023-04-23T14:54:22.772Z,7.72
2023-04-23T14:56:50.469Z,8.00
2023-04-23T14:59:17.312Z,7.80
2023-04-23T15:01:44.271Z,7.50
2023-04-23T15:04:11.814Z,7.78
2023-04-23T15:06:40.478Z,7.30
2023-04-23T15:09:07.277Z,7.60
2023-04-23T15:11:34.025Z,7.72
2023-04-23T15:14:26.368Z,8.35
2023-04-23T15:16:53.019Z,8.27
2023-04-23T15:19:19.676Z,8.45
2023-04-23T15:21:47.076Z,7.85
2023-04-23T15:24:14.567Z,8.82
2023-04-23T15:26:41.216Z,8.27
2023-04-23T15:29:10.714Z,7.35
2023-04-23T15:31:38.517Z,7.80
2023-04-23T15:34:07.403Z,7.95
2023-04-23T15:36:35.621Z,8.18
2023-04-23T15:39:02.358Z,8.20
2023-04-23T15:41:29.001Z,9.57
2023-04-23T15:43:56.580Z,8.80
2023-04-23T15:46:23.230Z,9.40
2023-04-23T15:48:49.843Z,8.93
2023-04-23T15:51:16.492Z,9.88
2023-04-23T15:53:43.173Z,9.07
2023-04-23T15:56:09.714Z,8.98
2023-04-23T15:58:36.281Z,8.43
2023-04-23T16:01:03.170Z,8.82
2023-04-23T16:03:29.996Z,13.85
2023-04-23T16:05:56.776Z,9.60
2023-04-23T16:08:23.344Z,9.75
2023-04-23T16:10:50.002Z,9.35
2023-04-23T16:13:17.644Z,9.98
2023-04-23T16:15:44.228Z,9.52
2023-04-23T16:18:10.921Z,9.57
2023-04-23T16:20:37.540Z,12.63
2023-04-23T16:23:04.189Z,12.30
2023-04-23T16:25:30.880Z,10.57
2023-04-23T16:27:57.575Z,9.85
2023-04-23T16:30:24.731Z,9.32
2023-04-23T16:32:51.604Z,9.57
2023-04-23T16:35:18.365Z,9.27
2023-04-23T16:37:45.415Z,9.55
2023-04-23T16:40:15.091Z,9.52
2023-04-23T16:42:42.684Z,10.02
2023-04-23T16:45:09.508Z,9.57
2023-04-23T16:47:36.477Z,9.63
2023-04-23T16:50:03.126Z,9.40
2023-04-23T16:52:29.849Z,9.25
2023-04-23T16:54:56.398Z,8.70
2023-04-23T16:57:23.584Z,9.68
2023-04-23T16:59:51.152Z,8.70
2023-04-23T17:02:19.320Z,9.02
2023-04-23T17:04:46.430Z,9.68
2023-04-23T17:07:13.225Z,10.05
2023-04-23T17:09:39.882Z,10.00
2023-04-23T17:12:06.503Z,10.48
2023-04-23T17:14:33.032Z,10.32
2023-04-23T17:16:59.641Z,9.95
2023-04-23T17:19:26.214Z,10.75
2023-04-23T17:21:52.860Z,10.70
2023-04-23T17:24:19.472Z,10.63
2023-04-23T17:26:47.532Z,11.10
2023-04-23T17:29:14.133Z,11.70
2023-04-23T17:31:40.943Z,11.50
2023-04-23T17:34:07.663Z,13.13
2023-04-23T17:36:34.249Z,13.23
2023-04-23T17:39:01.012Z,14.88
2023-04-23T17:41:27.597Z,15.57
2023-04-23T17:43:54.171Z,14.45
2023-04-23T17:46:21.384Z,14.40
2023-04-23T17:48:48.363Z,14.50
2023-04-23T17:51:15.090Z,15.77
2023-04-23T17:53:42.302Z,14.48
2023-04-23T17:56:08.951Z,14.48
2023-04-23T17:58:36.163Z,15.05
2023-04-23T18:01:04.862Z,15.77
2023-04-23T18:03:32.260Z,17.23
2023-04-23T18:05:59.508Z,15.10
2023-04-23T18:08:26.269Z,13.95
2023-04-23T18:10:53.227Z,14.77
2023-04-23T18:13:19.857Z,13.55
2023-04-23T18:15:49.927Z,13.35
2023-04-23T18:18:17.990Z,13.75
2023-04-23T18:20:46.305Z,14.30
2023-04-23T18:23:14.263Z,17.98
2023-04-23T18:25:41.837Z,13.32
2023-04-23T18:28:08.439Z,16.52
2023-04-23T18:30:38.011Z,15.43
2023-04-23T18:33:13.784Z,14.07
2023-04-23T18:35:47.140Z,15.13
2023-04-23T18:38:32.260Z,14.77
2023-04-23T18:41:04.489Z,14.68
2023-04-23T18:43:34.525Z,14.18
2023-04-23T18:46:02.163Z,14.30
2023-04-23T18:48:34.544Z,15.35
2023-04-23T18:51:24.620Z,14.70
2023-04-23T18:53:51.330Z,14.48
2023-04-23T18:56:17.943Z,14.15
2023-04-23T18:58:44.572Z,14.07
2023-04-23T19:01:11.256Z,13.95
2023-04-23T19:03:38.105Z,14.30
2023-04-23T19:06:07.464Z,14.18
2023-04-23T19:08:35.772Z,14.82
2023-04-23T19:11:02.825Z,15.48
2023-04-23T19:13:32.970Z,15.60
2023-04-23T19:16:00.028Z,16.73
2023-04-23T19:18:27.385Z,17.50
2023-04-23T19:20:53.977Z,19.45
2023-04-23T19:23:20.927Z,20.63
2023-04-23T19:25:48.096Z,22.85
2023-04-23T19:28:15.912Z,25.88
2023-04-23T19:30:42.537Z,28.85
2023-04-23T19:33:09.145Z,31.05
2023-04-23T19:35:39.370Z,33.15
2023-04-23T19:38:06.955Z,35.13
2023-04-23T19:40:33.710Z,39.28
2023-04-23T19:43:00.363Z,39.60
2023-04-23T19:45:27.039Z,38.45
2023-04-23T19:47:53.851Z,38.13
2023-04-23T19:50:20.702Z,37.75
2023-04-23T19:52:47.383Z,36.38
2023-04-23T19:55:15.596Z,36.55
2023-04-23T19:57:42.310Z,36.65
2023-04-23T20:00:13.541Z,35.45
2023-04-23T20:02:41.196Z,34.67
2023-04-23T20:05:10.304Z,37.85
2023-04-23T20:07:37.764Z,36.10
2023-04-23T20:10:05.251Z,34.58
2023-04-23T20:12:33.326Z,34.17
2023-04-23T20:14:59.948Z,32.10
2023-04-23T20:17:27.205Z,34.28
2023-04-23T20:19:53.967Z,37.05
2023-04-23T20:22:20.600Z,36.33
2023-04-23T20:24:48.846Z,38.55
2023-04-23T20:27:18.501Z,41.20
2023-04-23T20:29:45.188Z,44.15
2023-04-23T20:32:11.868Z,51.67
2023-04-23T20:34:38.627Z,54.38
2023-04-23T20:37:06.840Z,60.67
2023-04-23T20:39:34.355Z,64.25
2023-04-23T20:42:01.611Z,74.57
2023-04-23T20:44:28.196Z,77.65
2023-04-23T20:46:57.786Z,85.68
2023-04-23T20:49:27.507Z,91.03
2023-04-23T20:51:54.145Z,100.95
2023-04-23T20:54:20.820Z,118.07
2023-04-23T20:56:47.413Z,121.18
2023-04-23T20:59:14.478Z,116.32
2023-04-23T21:01:41.301Z,116.78
2023-04-23T21:04:08.208Z,120.55
2023-04-23T21:06:35.050Z,122.88
2023-04-23T21:09:01.836Z,115.05
2023-04-23T21:11:29.338Z,112.85
2023-04-23T21:13:56.176Z,98.43
2023-04-23T21:16:22.851Z,92.75
2023-04-23T21:18:49.394Z,94.80
2023-04-23T21:21:15.935Z,78.93
2023-04-23T21:23:42.502Z,62.15
2023-04-23T21:26:09.197Z,49.75
2023-04-23T21:28:36.896Z,42.65
2023-04-23T21:31:17.658Z,40.67
2023-04-23T21:33:44.305Z,32.03
2023-04-23T21:36:10.882Z,29.50
2023-04-23T21:38:37.422Z,31.83
2023-04-23T21:41:04.311Z,37.50
2023-04-23T21:43:35.370Z,44.83
2023-04-23T21:46:02.070Z,37.97
2023-04-23T21:48:28.629Z,33.95
2023-04-23T21:50:55.330Z,34.92
2023-04-23T21:53:22.523Z,31.38
2023-04-23T21:55:49.187Z,28.23
2023-04-23T21:58:17.805Z,27.58
2023-04-23T22:00:45.552Z,24.42
2023-04-23T22:03:18.220Z,26.60
2023-04-23T22:05:56.001Z,25.70
2023-04-23T22:08:23.378Z,26.23
2023-04-23T22:10:49.936Z,26.00
2023-04-23T22:13:16.913Z,27.58
2023-04-23T22:15:44.404Z,27.65
2023-04-23T22:18:11.004Z,31.55
2023-04-23T22:20:39.161Z,30.52
2023-04-23T22:23:05.801Z,31.73
2023-04-23T22:25:32.381Z,31.45
2023-04-23T22:27:58.938Z,30.63
2023-04-23T22:30:25.681Z,29.58
2023-04-23T22:32:52.236Z,32.47
2023-04-23T22:35:19.101Z,30.63
2023-04-23T22:37:45.838Z,32.33
2023-04-23T22:40:12.887Z,34.53
2023-04-23T22:42:39.463Z,33.17
2023-04-23T22:45:06.782Z,33.03
2023-04-23T22:47:33.462Z,33.25
2023-04-23T22:50:00.095Z,34.85
2023-04-23T22:52:26.991Z,40.25
2023-04-23T22:54:54.975Z,38.55
2023-04-23T22:57:21.687Z,36.53
2023-04-23T22:59:48.583Z,38.38
2023-04-23T23:02:16.065Z,43.00
2023-04-23T23:04:42.875Z,43.30
2023-04-23T23:07:10.014Z,42.65
2023-04-23T23:09:36.564Z,43.65
2023-04-23T23:12:04.277Z,47.30
2023-04-23T23:14:31.906Z,58.17
2023-04-23T23:16:59.049Z,59.67
2023-04-23T23:19:30.971Z,65.63
2023-04-23T23:21:57.634Z,60.92
2023-04-23T23:24:24.225Z,63.08
2023-04-23T23:26:51.132Z,67.22
2023-04-23T23:29:17.831Z,69.38
2023-04-23T23:31:45.091Z,73.10
2023-04-23T23:34:12.137Z,81.15
2023-04-23T23:36:38.754Z,85.40
2023-04-23T23:39:06.748Z,86.28
2023-04-23T23:41:33.485Z,93.25
2023-04-23T23:44:00.087Z,100.78
2023-04-23T23:46:26.697Z,102.13
2023-04-23T23:48:53.432Z,104.75
2023-04-23T23:51:20.199Z,108.55
2023-04-23T23:53:46.953Z,116.43
2023-04-23T23:56:13.519Z,113.95
2023-04-23T23:58:40.106Z,112.75
